Time;durP1;ratioP1;P1;durP2;ratioP2;P2;SDS_P1;SDS_P2;PMS_P1;PMS_P2;Temp;Humidity;BMP_temperature;BMP_pressure;BME280_temperature;BME280_humidity;BME280_pressure;Samples;Min_cycle;Max_cycle;Signal;HPM_P1;HPM_P2
2021/05/06 11:33:47;;;;;;;7.40;1.90;;;;;;;;;;5130595;27;20364;-74
2021/05/06 11:36:20;;;;;;;7.78;1.83;;;;;;;;;;5121688;28;20042;-76
2021/05/06 11:38:47;;;;;;;8.68;2.20;;;;;;;;;;5120775;27;20106;-77
2021/05/06 11:41:16;;;;;;;8.75;2.78;;;;;;;;;;5120173;28;20034;-77
2021/05/06 11:43:47;;;;;;;9.45;2.63;;;;;;;;;;5118940;28;20031;-77
2021/05/06 11:46:13;;;;;;;;;;;;;;;;;;5121984;27;20043;-74
2021/05/06 11:48:41;;;;;;;15.38;3.25;;;;;;;;;;5120070;28;20308;-74
2021/05/06 11:51:08;;;;;;;7.95;2.70;;;;;;;;;;5121796;27;20047;-76
2021/05/06 11:53:36;;;;;;;11.60;3.63;;;;;;;;;;5121664;27;20514;-76
2021/05/06 11:56:12;;;;;;;15.75;2.50;;;;;;;;;;5120920;27;20020;-77
2021/05/06 11:58:43;;;;;;;10.18;2.03;;;;;;;;;;5121152;27;20544;-76
2021/05/06 12:01:10;;;;;;;10.20;2.30;;;;;;;;;;5121400;27;20034;-78
2021/05/06 12:03:41;;;;;;;11.02;2.33;;;;;;;;;;5121707;27;20269;-74
2021/05/06 12:06:08;;;;;;;9.68;1.98;;;;;;;;;;5119878;28;20023;-76
2021/05/06 12:08:48;;;;;;;7.95;2.00;;;;;;;;;;5103291;27;20039;-74
2021/05/06 12:11:16;;;;;;;9.90;1.92;;;;;;;;;;5099911;28;20120;-74
2021/05/06 12:13:43;;;;;;;10.38;1.92;;;;;;;;;;5097785;28;20032;-74
2021/05/06 12:16:10;;;;;;;12.15;2.20;;;;;;;;;;5095302;28;20057;-74
2021/05/06 12:18:37;;;;;;;7.07;2.00;;;;;;;;;;5104521;28;20114;-75
2021/05/06 12:21:05;;;;;;;15.57;3.17;;;;;;;;;;5122474;27;20083;-75
2021/05/06 12:23:33;;;;;;;14.05;3.10;;;;;;;;;;5123771;27;20027;-77
2021/05/06 12:26:00;;;;;;;16.48;4.65;;;;;;;;;;5121926;28;20027;-75
2021/05/06 12:28:27;;;;;;;25.38;5.82;;;;;;;;;;5121543;27;20032;-75
2021/05/06 12:31:00;;;;;;;20.55;6.68;;;;;;;;;;5120582;28;20677;-76
2021/05/06 12:33:31;;;;;;;18.83;5.45;;;;;;;;;;5101872;28;20059;-76
2021/05/06 12:35:59;;;;;;;23.85;8.05;;;;;;;;;;5101527;28;20028;-76
2021/05/06 12:38:26;;;;;;;30.65;7.45;;;;;;;;;;5101165;28;20027;-75
2021/05/06 12:40:53;;;;;;;21.88;5.65;;;;;;;;;;5101189;28;20172;-76
2021/05/06 12:43:23;;;;;;;16.15;5.85;;;;;;;;;;5095969;28;20035;-77
2021/05/06 12:46:10;;;;;;;21.52;6.35;;;;;;;;;;5085508;28;20184;-79
2021/05/06 12:48:38;;;;;;;16.42;6.00;;;;;;;;;;5086487;28;20671;-76
2021/05/06 12:51:05;;;;;;;22.73;6.75;;;;;;;;;;5087130;28;20028;-80
2021/05/06 12:53:32;;;;;;;26.30;10.10;;;;;;;;;;5087403;28;20036;-67
2021/05/06 12:55:59;;;;;;;31.35;15.60;;;;;;;;;;5086746;28;20020;-67
2021/05/06 12:58:30;;;;;;;42.90;23.92;;;;;;;;;;5086940;28;20028;-68
2021/05/06 13:00:59;;;;;;;54.92;31.77;;;;;;;;;;5086959;28;20073;-67
2021/05/06 13:03:30;;;;;;;30.83;21.00;;;;;;;;;;5087141;28;20035;-67
2021/05/06 13:06:03;;;;;;;23.88;13.18;;;;;;;;;;5086768;28;20024;-67
2021/05/06 13:08:36;;;;;;;18.50;9.32;;;;;;;;;;5086192;28;20457;-67
2021/05/06 13:11:03;;;;;;;25.55;8.45;;;;;;;;;;5086788;28;20082;-67
2021/05/06 13:13:41;;;;;;;17.33;5.57;;;;;;;;;;5087048;28;20065;-67
2021/05/06 13:16:11;;;;;;;11.57;4.90;;;;;;;;;;5086502;28;20024;-66
2021/05/06 13:18:38;;;;;;;21.40;6.37;;;;;;;;;;5084984;28;20571;-67
2021/05/06 13:21:06;;;;;;;17.10;6.03;;;;;;;;;;5086065;28;20851;-68
2021/05/06 13:23:35;;;;;;;14.38;6.97;;;;;;;;;;5086958;28;20115;-67
2021/05/06 13:26:02;;;;;;;12.55;5.28;;;;;;;;;;5086738;28;20027;-67
2021/05/06 13:28:32;;;;;;;12.88;3.38;;;;;;;;;;5086159;28;20020;-68
2021/05/06 13:31:12;;;;;;;12.32;2.75;;;;;;;;;;5086958;28;20028;-66
2021/05/06 13:33:40;;;;;;;17.48;5.03;;;;;;;;;;5085828;28;20516;-66
2021/05/06 13:36:07;;;;;;;14.65;2.90;;;;;;;;;;5086857;28;20034;-66
2021/05/06 13:39:06;;;;;;;11.75;3.20;;;;;;;;;;5086123;28;20032;-66
2021/05/06 13:41:36;;;;;;;17.27;5.18;;;;;;;;;;5073484;28;20050;-65
2021/05/06 13:44:07;;;;;;;15.20;3.25;;;;;;;;;;5086124;28;20070;-67
2021/05/06 13:46:34;;;;;;;;;;;;;;;;;;5085822;28;20095;-66
2021/05/06 13:49:01;;;;;;;18.00;3.90;;;;;;;;;;5085369;28;20403;-67
2021/05/06 13:51:28;;;;;;;10.00;2.38;;;;;;;;;;5085959;28;20024;-65
2021/05/06 13:53:55;;;;;;;17.90;2.30;;;;;;;;;;5086036;28;20032;-65
2021/05/06 13:56:22;;;;;;;10.77;2.25;;;;;;;;;;5084544;28;20048;-66
2021/05/06 13:58:50;;;;;;;9.93;2.15;;;;;;;;;;5085319;28;20032;-66
2021/05/06 14:01:17;;;;;;;10.05;2.05;;;;;;;;;;5085713;28;20024;-66
2021/05/06 14:03:44;;;;;;;13.57;2.13;;;;;;;;;;5085554;28;20085;-66
2021/05/06 14:06:11;;;;;;;9.70;2.10;;;;;;;;;;5085630;28;20114;-66
2021/05/06 14:08:38;;;;;;;14.48;2.10;;;;;;;;;;5084560;28;20107;-67
2021/05/06 14:11:05;;;;;;;15.82;2.03;;;;;;;;;;5085723;28;20051;-68
2021/05/06 14:13:32;;;;;;;6.20;1.80;;;;;;;;;;5085969;28;20085;-68
2021/05/06 14:15:59;;;;;;;11.68;2.80;;;;;;;;;;5085588;28;20024;-68
2021/05/06 14:18:26;;;;;;;15.32;3.13;;;;;;;;;;5085151;28;20028;-68
2021/05/06 14:20:59;;;;;;;12.63;4.43;;;;;;;;;;5084895;28;20024;-67
2021/05/06 14:23:26;;;;;;;16.67;3.70;;;;;;;;;;5085565;28;20347;-67
2021/05/06 14:25:54;;;;;;;20.45;3.70;;;;;;;;;;5085286;28;20056;-67
2021/05/06 14:28:21;;;;;;;23.90;2.90;;;;;;;;;;5084737;28;20051;-66
2021/05/06 14:30:48;;;;;;;15.60;2.78;;;;;;;;;;5085118;28;20039;-67
2021/05/06 14:33:15;;;;;;;11.18;3.55;;;;;;;;;;5101040;28;20079;-67
2021/05/06 14:35:42;;;;;;;14.77;3.30;;;;;;;;;;5105828;28;20437;-67
2021/05/06 14:38:09;;;;;;;28.88;3.28;;;;;;;;;;5105479;28;20027;-67
2021/05/06 14:40:37;;;;;;;13.05;4.15;;;;;;;;;;5103798;28;20027;-68
2021/05/06 14:43:04;;;;;;;18.17;3.00;;;;;;;;;;5088364;28;20035;-67
2021/05/06 14:45:31;;;;;;;13.23;3.45;;;;;;;;;;5092409;28;20028;-67
2021/05/06 14:47:57;;;;;;;16.27;5.40;;;;;;;;;;5105663;28;20505;-67
2021/05/06 14:50:24;;;;;;;22.33;8.98;;;;;;;;;;5105597;28;20617;-67
2021/05/06 14:52:54;;;;;;;19.38;5.50;;;;;;;;;;5105696;28;20043;-67
2021/05/06 14:55:22;;;;;;;15.48;4.93;;;;;;;;;;5105473;28;20431;-68
2021/05/06 14:57:49;;;;;;;16.65;4.25;;;;;;;;;;5105065;28;20032;-66
2021/05/06 15:00:16;;;;;;;14.43;4.07;;;;;;;;;;5105297;28;20031;-67
2021/05/06 15:02:43;;;;;;;15.02;3.50;;;;;;;;;;5105964;28;20036;-67
2021/05/06 15:05:10;;;;;;;16.25;3.42;;;;;;;;;;5106470;28;20031;-67
2021/05/06 15:07:37;;;;;;;10.95;2.88;;;;;;;;;;5106316;28;20077;-77
2021/05/06 15:10:07;;;;;;;10.32;3.33;;;;;;;;;;5100355;28;20115;-72
2021/05/06 15:12:35;;;;;;;16.00;2.60;;;;;;;;;;5098581;28;20039;-76
2021/05/06 15:15:03;;;;;;;13.32;3.03;;;;;;;;;;5096376;28;20288;-75
2021/05/06 15:17:29;;;;;;;16.50;2.95;;;;;;;;;;5093646;28;20039;-76
2021/05/06 15:19:56;;;;;;;12.25;3.42;;;;;;;;;;5100804;28;20438;-76
2021/05/06 15:22:24;;;;;;;9.63;3.08;;;;;;;;;;5096062;28;20032;-78
2021/05/06 15:24:51;;;;;;;12.70;4.45;;;;;;;;;;5083550;28;20406;-77
2021/05/06 15:27:18;;;;;;;9.73;2.88;;;;;;;;;;5095378;28;20024;-78
2021/05/06 15:29:45;;;;;;;12.48;3.63;;;;;;;;;;5094165;28;20431;-78
2021/05/06 15:32:12;;;;;;;26.48;5.45;;;;;;;;;;5086989;28;20597;-77
2021/05/06 15:34:40;;;;;;;8.95;2.22;;;;;;;;;;5078759;28;20032;-78
2021/05/06 15:37:07;;;;;;;9.73;2.20;;;;;;;;;;5077032;28;20035;-78
2021/05/06 15:39:37;;;;;;;9.57;2.92;;;;;;;;;;5065710;28;20020;-80
2021/05/06 15:42:04;;;;;;;7.10;2.22;;;;;;;;;;5076494;28;20498;-79
2021/05/06 15:44:31;;;;;;;15.60;3.63;;;;;;;;;;5072317;28;20062;-79
2021/05/06 15:46:59;;;;;;;14.32;2.78;;;;;;;;;;5084690;28;20055;-77
2021/05/06 15:49:33;;;;;;;17.25;3.70;;;;;;;;;;5084280;28;20820;-73
2021/05/06 15:52:00;;;;;;;10.23;2.78;;;;;;;;;;5084884;28;20059;-78
2021/05/06 15:54:27;;;;;;;12.45;2.40;;;;;;;;;;5085125;28;20413;-78
2021/05/06 15:56:54;;;;;;;10.07;2.58;;;;;;;;;;5085115;28;20024;-80
2021/05/06 15:59:20;;;;;;;14.82;2.83;;;;;;;;;;5083192;28;20036;-74
2021/05/06 16:01:48;;;;;;;10.65;3.00;;;;;;;;;;5084293;28;20056;-77
2021/05/06 16:04:19;;;;;;;5.82;1.92;;;;;;;;;;5080521;28;20055;-80
2021/05/06 16:06:46;;;;;;;10.35;1.92;;;;;;;;;;5064736;28;20056;-82
2021/05/06 16:09:13;;;;;;;10.45;1.88;;;;;;;;;;5069624;28;20024;-79
2021/05/06 16:11:40;;;;;;;7.18;3.00;;;;;;;;;;5069613;28;20040;-80
2021/05/06 16:14:06;;;;;;;14.40;2.95;;;;;;;;;;5080261;28;20016;-72
2021/05/06 16:16:33;;;;;;;17.58;2.70;;;;;;;;;;5071747;28;20067;-67
2021/05/06 16:19:01;;;;;;;8.25;1.95;;;;;;;;;;5083933;28;20036;-66
2021/05/06 16:21:28;;;;;;;7.88;2.05;;;;;;;;;;5079013;28;20050;-66
2021/05/06 16:23:55;;;;;;;8.75;2.55;;;;;;;;;;5074941;28;20564;-67
2021/05/06 16:26:21;;;;;;;14.77;2.40;;;;;;;;;;5083197;28;20086;-65
2021/05/06 16:28:48;;;;;;;18.52;2.47;;;;;;;;;;5085282;28;20028;-65
2021/05/06 16:31:15;;;;;;;9.82;2.78;;;;;;;;;;5084326;28;20436;-66
2021/05/06 16:33:48;;;;;;;6.85;2.17;;;;;;;;;;5105758;28;21704;-66
2021/05/06 16:39:09;;;;;;;7.43;1.63;;;;;;;;;;5101185;28;20035;-67
2021/05/06 16:42:02;;;;;;;8.00;1.63;;;;;;;;;;5091233;28;20289;-66
2021/05/06 16:46:57;;;;;;;6.68;1.35;;;;;;;;;;5102705;28;20044;-66
2021/05/06 16:49:24;;;;;;;11.90;1.65;;;;;;;;;;5105194;28;20509;-66
2021/05/06 16:51:51;;;;;;;15.38;1.55;;;;;;;;;;5105557;28;20042;-66
2021/05/06 16:54:19;;;;;;;19.23;2.70;;;;;;;;;;5105778;28;20023;-67
2021/05/06 16:56:47;;;;;;;5.40;1.55;;;;;;;;;;5085558;28;20034;-68
2021/05/06 16:59:14;;;;;;;7.25;1.90;;;;;;;;;;5098801;28;20062;-66
2021/05/06 17:01:41;;;;;;;8.65;1.58;;;;;;;;;;5103419;28;20032;-64
2021/05/06 17:04:09;;;;;;;5.63;1.27;;;;;;;;;;5092183;28;20098;-65
2021/05/06 17:06:36;;;;;;;7.40;1.42;;;;;;;;;;5095534;28;20409;-66
2021/05/06 17:09:12;;;;;;;5.93;1.48;;;;;;;;;;5086641;28;20035;-64
2021/05/06 17:11:40;;;;;;;8.35;1.23;;;;;;;;;;5101860;28;20132;-66
2021/05/06 17:14:07;;;;;;;4.78;1.05;;;;;;;;;;5104060;28;20428;-67
2021/05/06 17:16:34;;;;;;;4.63;1.05;;;;;;;;;;5105508;28;20035;-66
2021/05/06 17:19:01;;;;;;;5.57;1.48;;;;;;;;;;5104436;28;20439;-66
2021/05/06 17:21:28;;;;;;;4.45;1.10;;;;;;;;;;5100128;28;20024;-67
2021/05/06 17:23:55;;;;;;;5.60;1.33;;;;;;;;;;5084736;28;20485;-67
2021/05/06 17:26:22;;;;;;;6.93;1.70;;;;;;;;;;5086059;28;20042;-67
2021/05/06 17:28:49;;;;;;;8.05;1.45;;;;;;;;;;5087292;28;20031;-66
2021/05/06 17:31:16;;;;;;;6.82;1.80;;;;;;;;;;5084747;28;20028;-67
2021/05/06 17:33:43;;;;;;;5.55;1.27;;;;;;;;;;5098849;28;20056;-65
2021/05/06 17:36:11;;;;;;;6.18;1.30;;;;;;;;;;5104707;28;20020;-66
2021/05/06 17:38:39;;;;;;;9.18;1.75;;;;;;;;;;5103948;28;20020;-67
2021/05/06 17:41:05;;;;;;;6.68;1.35;;;;;;;;;;5105249;28;20063;-67
2021/05/06 17:43:33;;;;;;;9.75;1.30;;;;;;;;;;5104774;28;20028;-67
2021/05/06 17:46:00;;;;;;;7.97;1.30;;;;;;;;;;5104510;28;20019;-65
2021/05/06 17:48:27;;;;;;;5.05;1.60;;;;;;;;;;5104722;28;20597;-66
2021/05/06 17:50:54;;;;;;;13.25;1.58;;;;;;;;;;5104929;28;20760;-65
2021/05/06 17:53:23;;;;;;;7.13;1.30;;;;;;;;;;5104959;28;20040;-66
2021/05/06 17:55:50;;;;;;;6.75;1.15;;;;;;;;;;5104491;28;20037;-66
2021/05/06 17:58:17;;;;;;;4.45;0.93;;;;;;;;;;5103722;28;20559;-65
2021/05/06 18:00:43;;;;;;;8.18;0.95;;;;;;;;;;5102818;28;20693;-65
2021/05/06 18:03:12;;;;;;;13.18;1.70;;;;;;;;;;5104555;28;20054;-66
2021/05/06 18:05:38;;;;;;;9.93;1.38;;;;;;;;;;5104529;28;20055;-66
2021/05/06 18:08:05;;;;;;;21.02;1.52;;;;;;;;;;5100443;28;20031;-66
2021/05/06 18:10:52;;;;;;;9.52;1.65;;;;;;;;;;5099092;28;20547;-67
2021/05/06 18:13:19;;;;;;;6.18;1.73;;;;;;;;;;5103375;28;20035;-66
2021/05/06 18:15:46;;;;;;;8.50;1.42;;;;;;;;;;5103120;28;20048;-66
2021/05/06 18:18:12;;;;;;;4.95;1.25;;;;;;;;;;5100855;28;20057;-66
2021/05/06 18:20:39;;;;;;;6.43;1.40;;;;;;;;;;5093941;28;21448;-67
2021/05/06 18:23:06;;;;;;;10.45;1.88;;;;;;;;;;5103784;28;20028;-78
2021/05/06 18:25:33;;;;;;;13.05;1.50;;;;;;;;;;5103739;28;20103;-70
2021/05/06 18:28:01;;;;;;;7.57;1.35;;;;;;;;;;5103373;28;20073;-75
2021/05/06 18:30:28;;;;;;;5.43;1.42;;;;;;;;;;5103340;28;20386;-76
2021/05/06 18:32:54;;;;;;;6.28;1.80;;;;;;;;;;5088018;28;20059;-71
2021/05/06 18:35:21;;;;;;;11.93;1.90;;;;;;;;;;5082652;28;20024;-78
2021/05/06 18:37:50;;;;;;;3.08;1.10;;;;;;;;;;5083601;28;20036;-73
2021/05/06 18:40:17;;;;;;;9.80;1.38;;;;;;;;;;5082552;28;20044;-76
2021/05/06 18:42:44;;;;;;;9.93;1.40;;;;;;;;;;5081933;28;20051;-74
2021/05/06 18:45:10;;;;;;;8.13;1.35;;;;;;;;;;5083306;28;20039;-73
2021/05/06 18:47:37;;;;;;;7.70;1.13;;;;;;;;;;5081259;28;20076;-73
2021/05/06 18:50:04;;;;;;;5.05;1.35;;;;;;;;;;5082046;28;20032;-78
2021/05/06 18:52:31;;;;;;;15.00;1.25;;;;;;;;;;5083252;28;20044;-77
2021/05/06 18:54:58;;;;;;;8.85;1.15;;;;;;;;;;5083024;28;20035;-77
2021/05/06 18:57:24;;;;;;;9.25;1.48;;;;;;;;;;5082687;28;20016;-73
2021/05/06 18:59:52;;;;;;;4.70;0.98;;;;;;;;;;5081574;28;20035;-78
2021/05/06 19:02:18;;;;;;;7.50;1.10;;;;;;;;;;5082811;28;20020;-80
2021/05/06 19:04:45;;;;;;;10.10;1.45;;;;;;;;;;5083392;28;20039;-74
2021/05/06 19:07:12;;;;;;;6.47;1.80;;;;;;;;;;5085744;28;20103;-84
2021/05/06 19:09:39;;;;;;;8.93;1.30;;;;;;;;;;5085527;28;20020;-85
2021/05/06 19:12:06;;;;;;;4.22;1.20;;;;;;;;;;5086136;28;20039;-85
2021/05/06 19:14:32;;;;;;;7.32;1.45;;;;;;;;;;5086239;28;20020;-86
2021/05/06 19:16:59;;;;;;;8.70;2.42;;;;;;;;;;5086123;28;20405;-78
2021/05/06 19:19:26;;;;;;;12.07;1.77;;;;;;;;;;5086037;28;20032;-84
2021/05/06 19:21:54;;;;;;;8.80;2.08;;;;;;;;;;5086268;28;20051;-85
2021/05/06 19:24:22;;;;;;;7.70;2.22;;;;;;;;;;5086216;28;20016;-85
2021/05/06 19:26:49;;;;;;;18.27;4.68;;;;;;;;;;5085540;28;20023;-77
2021/05/06 19:29:16;;;;;;;11.10;2.42;;;;;;;;;;5085640;28;20333;-85
2021/05/06 19:31:43;;;;;;;18.92;4.18;;;;;;;;;;5088337;28;20112;-83
2021/05/06 19:34:10;;;;;;;7.63;1.73;;;;;;;;;;5105505;28;20107;-83
2021/05/06 19:36:37;;;;;;;8.15;1.98;;;;;;;;;;5105934;28;20032;-86
2021/05/06 19:39:05;;;;;;;17.52;2.88;;;;;;;;;;5102188;28;20508;-78
2021/05/06 19:41:32;;;;;;;10.38;1.80;;;;;;;;;;5102643;28;20031;-79
2021/05/06 19:44:03;;;;;;;10.60;2.38;;;;;;;;;;5105278;28;20741;-83
2021/05/06 19:46:35;;;;;;;9.17;2.33;;;;;;;;;;5105010;28;20015;-85
2021/05/06 19:49:03;;;;;;;17.23;2.10;;;;;;;;;;5103649;28;20043;-75
2021/05/06 19:51:30;;;;;;;11.70;1.75;;;;;;;;;;5105322;28;20019;-74
2021/05/06 19:53:57;;;;;;;12.57;3.08;;;;;;;;;;5105983;28;20126;-70
2021/05/06 19:56:25;;;;;;;16.73;3.80;;;;;;;;;;5106407;28;20485;-74
2021/05/06 19:58:52;;;;;;;8.85;2.00;;;;;;;;;;5108412;28;20020;-75
2021/05/06 20:01:20;;;;;;;5.43;2.17;;;;;;;;;;5108953;28;20393;-73
2021/05/06 20:03:48;;;;;;;10.63;2.25;;;;;;;;;;5108263;28;20019;-76
2021/05/06 20:06:15;;;;;;;12.40;2.47;;;;;;;;;;5109070;28;20020;-76
2021/05/06 20:08:42;;;;;;;10.85;2.00;;;;;;;;;;5109102;28;20027;-75
2021/05/06 20:11:08;;;;;;;11.98;2.10;;;;;;;;;;5108238;28;20116;-72
2021/05/06 20:13:41;;;;;;;9.30;2.10;;;;;;;;;;5107850;28;20081;-72
2021/05/06 20:16:08;;;;;;;13.40;3.05;;;;;;;;;;5109486;28;20473;-72
2021/05/06 20:18:35;;;;;;;9.85;2.15;;;;;;;;;;5111795;28;20031;-71
2021/05/06 20:23:38;;;;;;;12.13;3.35;;;;;;;;;;5111515;28;20119;-74
2021/05/06 20:26:04;;;;;;;18.67;3.25;;;;;;;;;;5108670;28;20023;-73
2021/05/06 20:28:31;;;;;;;8.63;2.42;;;;;;;;;;5111637;27;20099;-72
2021/05/06 20:30:58;;;;;;;15.55;2.63;;;;;;;;;;5111600;28;20026;-73
2021/05/06 20:33:25;;;;;;;11.45;3.08;;;;;;;;;;5108702;28;20477;-74
2021/05/06 20:35:51;;;;;;;25.52;3.47;;;;;;;;;;5111715;28;20656;-73
2021/05/06 20:38:18;;;;;;;17.73;2.70;;;;;;;;;;5111730;28;20024;-74
2021/05/06 20:40:47;;;;;;;13.27;3.30;;;;;;;;;;5108311;28;20023;-70
2021/05/06 20:43:16;;;;;;;18.98;2.17;;;;;;;;;;5111142;28;20019;-74
2021/05/06 20:45:43;;;;;;;11.35;2.08;;;;;;;;;;5109723;28;20019;-70
2021/05/06 20:48:19;;;;;;;16.73;3.22;;;;;;;;;;5091483;28;20106;-67
2021/05/06 20:50:46;;;;;;;14.90;3.58;;;;;;;;;;5087568;28;20032;-69
2021/05/06 20:53:14;;;;;;;8.07;2.33;;;;;;;;;;5107751;28;20085;-70
2021/05/06 20:55:41;;;;;;;21.17;8.00;;;;;;;;;;5108684;28;20015;-71
2021/05/06 20:58:07;;;;;;;16.15;3.97;;;;;;;;;;5106254;28;20047;-74
2021/05/06 21:00:34;;;;;;;21.58;5.97;;;;;;;;;;5105344;28;20398;-68
2021/05/06 21:03:01;;;;;;;16.58;6.30;;;;;;;;;;5109013;28;20024;-68
2021/05/06 21:05:28;;;;;;;12.27;4.78;;;;;;;;;;5107285;28;20028;-67
2021/05/06 21:07:55;;;;;;;14.32;4.07;;;;;;;;;;5097407;28;20028;-69
2021/05/06 21:10:22;;;;;;;15.65;3.65;;;;;;;;;;5087700;28;20020;-67
2021/05/06 21:12:49;;;;;;;16.95;3.95;;;;;;;;;;5095521;28;20044;-65
2021/05/06 21:15:16;;;;;;;8.45;2.80;;;;;;;;;;5108548;28;20027;-68
2021/05/06 21:17:43;;;;;;;16.00;6.28;;;;;;;;;;5105229;28;20115;-67
2021/05/06 21:20:10;;;;;;;9.32;3.30;;;;;;;;;;5097841;28;20118;-68
2021/05/06 21:22:37;;;;;;;17.38;4.55;;;;;;;;;;5097756;28;20058;-66
2021/05/06 21:25:04;;;;;;;15.98;5.63;;;;;;;;;;5103760;28;20462;-68
2021/05/06 21:27:31;;;;;;;20.63;7.35;;;;;;;;;;5105613;28;20536;-67
2021/05/06 21:29:58;;;;;;;15.23;7.53;;;;;;;;;;5104246;28;20055;-66
2021/05/06 21:32:25;;;;;;;12.05;5.68;;;;;;;;;;5096067;28;20039;-65
2021/05/06 21:34:52;;;;;;;8.93;4.55;;;;;;;;;;5085042;28;20505;-67
2021/05/06 21:37:19;;;;;;;13.52;4.97;;;;;;;;;;5084759;28;20020;-67
2021/05/06 21:39:45;;;;;;;17.02;5.65;;;;;;;;;;5082817;28;20665;-68
2021/05/06 21:42:12;;;;;;;10.50;3.55;;;;;;;;;;5084137;28;20031;-69
2021/05/06 21:44:39;;;;;;;17.98;5.82;;;;;;;;;;5085118;28;20500;-72
2021/05/06 21:47:06;;;;;;;6.32;2.60;;;;;;;;;;5084720;28;20028;-66
2021/05/06 21:49:37;;;;;;;10.98;5.32;;;;;;;;;;5083907;28;20032;-67
2021/05/06 21:52:05;;;;;;;14.88;4.88;;;;;;;;;;5082630;28;20036;-72
2021/05/06 21:54:32;;;;;;;14.45;5.60;;;;;;;;;;5083576;28;20020;-68
2021/05/06 21:56:59;;;;;;;9.82;3.55;;;;;;;;;;5082293;28;20024;-67
2021/05/06 21:59:26;;;;;;;13.43;3.88;;;;;;;;;;5084535;28;20028;-72
2021/05/06 22:01:52;;;;;;;10.95;4.25;;;;;;;;;;5084002;28;20048;-67
2021/05/06 22:04:19;;;;;;;13.23;4.05;;;;;;;;;;5084156;28;20089;-70
2021/05/06 22:06:46;;;;;;;14.18;8.70;;;;;;;;;;5083063;28;20744;-66
2021/05/06 22:09:13;;;;;;;10.70;4.40;;;;;;;;;;5084189;28;20494;-72
2021/05/06 22:11:40;;;;;;;14.50;3.58;;;;;;;;;;5081864;28;20515;-68
2021/05/06 22:14:07;;;;;;;21.13;4.15;;;;;;;;;;5082335;28;20040;-67
2021/05/06 22:16:34;;;;;;;20.38;5.78;;;;;;;;;;5081513;28;20035;-67
2021/05/06 22:19:00;;;;;;;20.20;8.00;;;;;;;;;;5081398;28;20050;-70
2021/05/06 22:21:30;;;;;;;15.55;5.50;;;;;;;;;;5083153;28;20037;-67
2021/05/06 22:23:58;;;;;;;11.60;4.05;;;;;;;;;;5083661;28;21181;-69
2021/05/06 22:26:25;;;;;;;28.40;14.73;;;;;;;;;;5083312;28;20032;-66
2021/05/06 22:28:52;;;;;;;14.52;5.75;;;;;;;;;;5082595;28;20028;-68
2021/05/06 22:31:19;;;;;;;42.28;19.98;;;;;;;;;;5083170;28;20036;-72
2021/05/06 22:33:46;;;;;;;22.23;11.77;;;;;;;;;;5104139;28;20044;-65
2021/05/06 22:36:13;;;;;;;18.88;7.60;;;;;;;;;;5101878;28;20030;-66
2021/05/06 22:38:39;;;;;;;10.93;5.03;;;;;;;;;;5103988;28;20457;-66
2021/05/06 22:41:08;;;;;;;11.38;5.35;;;;;;;;;;5102390;27;20081;-68
2021/05/06 22:43:35;;;;;;;14.32;6.60;;;;;;;;;;5103807;28;20020;-66
2021/05/06 22:46:01;;;;;;;16.40;6.93;;;;;;;;;;5103487;28;20027;-72
2021/05/06 22:48:28;;;;;;;11.00;4.53;;;;;;;;;;5103061;28;20031;-65
2021/05/06 22:50:55;;;;;;;12.05;5.25;;;;;;;;;;5101164;28;20039;-67
2021/05/06 22:53:21;;;;;;;12.38;6.38;;;;;;;;;;5097392;28;20489;-66
2021/05/06 22:55:48;;;;;;;14.93;5.93;;;;;;;;;;5102888;28;20032;-65
2021/05/06 22:58:15;;;;;;;17.13;6.43;;;;;;;;;;5103249;28;20055;-65
2021/05/06 23:00:42;;;;;;;14.77;6.80;;;;;;;;;;5101539;28;20020;-65
2021/05/06 23:03:09;;;;;;;15.73;8.02;;;;;;;;;;5103434;28;20489;-69
2021/05/06 23:05:36;;;;;;;25.08;16.17;;;;;;;;;;5102887;28;20034;-64
2021/05/06 23:08:02;;;;;;;22.92;12.20;;;;;;;;;;5103841;28;20187;-64
2021/05/06 23:10:29;;;;;;;17.38;8.43;;;;;;;;;;5103001;28;20038;-64
2021/05/06 23:12:56;;;;;;;16.27;6.03;;;;;;;;;;5100982;28;20032;-65
2021/05/06 23:15:23;;;;;;;11.70;5.93;;;;;;;;;;5081677;28;20039;-71
2021/05/06 23:17:49;;;;;;;13.65;6.00;;;;;;;;;;5089061;28;20169;-66
2021/05/06 23:20:16;;;;;;;13.52;9.57;;;;;;;;;;5101312;28;20032;-67
2021/05/06 23:22:43;;;;;;;20.55;6.53;;;;;;;;;;5103455;28;20019;-66
2021/05/06 23:25:10;;;;;;;10.65;6.22;;;;;;;;;;5103079;28;20019;-66
2021/05/06 23:27:36;;;;;;;10.75;6.35;;;;;;;;;;5103095;28;20020;-66
2021/05/06 23:30:04;;;;;;;8.48;4.40;;;;;;;;;;5098059;28;20526;-67
2021/05/06 23:32:30;;;;;;;21.55;8.57;;;;;;;;;;5086859;28;20403;-67
2021/05/06 23:34:57;;;;;;;21.60;8.40;;;;;;;;;;5082238;28;20032;-67
2021/05/06 23:37:24;;;;;;;21.55;12.05;;;;;;;;;;5081965;28;20024;-67
2021/05/06 23:39:51;;;;;;;17.20;8.57;;;;;;;;;;5081506;28;20028;-65
2021/05/06 23:42:18;;;;;;;23.70;13.48;;;;;;;;;;5080785;28;20029;-66
2021/05/06 23:44:44;;;;;;;12.68;5.70;;;;;;;;;;5080187;28;20367;-65
2021/05/06 23:47:11;;;;;;;10.98;4.90;;;;;;;;;;5075489;28;20116;-66
2021/05/06 23:49:38;;;;;;;19.60;9.50;;;;;;;;;;5075269;28;20100;-69
2021/05/06 23:52:05;;;;;;;10.35;3.47;;;;;;;;;;5080886;28;20161;-66
2021/05/06 23:54:32;;;;;;;13.30;5.40;;;;;;;;;;5081120;28;20027;-68
2021/05/06 23:56:59;;;;;;;11.65;5.18;;;;;;;;;;5081639;28;20070;-66
2021/05/06 23:59:25;;;;;;;11.95;6.78;;;;;;;;;;5076114;28;20474;-66
